createdAt,value
2023-04-27T08:47:47.856Z,72.75
2023-04-27T08:52:52.092Z,71.44
2023-04-27T08:57:56.799Z,72.75
2023-04-27T09:03:04.034Z,70.21
2023-04-27T09:08:10.763Z,67.39
2023-04-27T09:13:14.201Z,70.00
2023-04-27T09:18:21.107Z,71.55
2023-04-27T09:23:27.939Z,71.33
2023-04-27T09:28:32.709Z,69.19
2023-04-27T09:33:37.915Z,68.81
2023-04-27T09:38:41.551Z,70.30
2023-04-27T09:43:48.027Z,67.04
2023-04-27T09:48:53.978Z,64.12
2023-04-27T09:53:59.879Z,65.96
2023-04-27T09:59:14.343Z,68.91
2023-04-27T10:04:30.044Z,68.48
2023-04-27T10:09:37.642Z,65.64
2023-04-27T10:14:49.280Z,60.32
2023-04-27T10:20:00.722Z,60.35
2023-04-27T10:25:13.608Z,57.42
2023-04-27T10:30:18.886Z,56.74
2023-04-27T10:35:34.093Z,59.27
2023-04-27T10:40:38.107Z,59.90
2023-04-27T10:45:42.333Z,61.47
2023-04-27T10:50:47.723Z,61.62
2023-04-27T10:55:57.340Z,60.74
2023-04-27T11:01:04.521Z,58.28
2023-04-27T11:06:09.326Z,57.98
2023-04-27T11:11:16.648Z,61.68
2023-04-27T11:16:22.712Z,58.91
2023-04-27T11:21:28.653Z,59.50
2023-04-27T11:26:32.180Z,59.49
2023-04-27T11:31:43.207Z,57.72
2023-04-27T11:37:10.835Z,60.05
2023-04-27T11:42:25.956Z,59.44
2023-04-27T11:47:42.213Z,59.67
2023-04-27T11:52:52.771Z,58.26
2023-04-27T11:57:59.021Z,59.50
2023-04-27T12:03:05.708Z,60.75
2023-04-27T12:08:15.503Z,60.35
2023-04-27T12:18:48.874Z,58.62
2023-04-27T12:23:56.666Z,58.07
2023-04-27T12:29:25.924Z,60.45
2023-04-27T12:34:33.166Z,59.89
2023-04-27T12:39:37.975Z,58.54
2023-04-27T12:44:41.383Z,58.56
2023-04-27T12:49:48.319Z,55.64
2023-04-27T12:54:57.661Z,55.51
2023-04-27T13:00:01.916Z,59.03
2023-04-27T13:05:10.145Z,56.93
2023-04-27T13:10:15.452Z,54.87
2023-04-27T13:15:22.189Z,53.81
2023-04-27T13:20:25.555Z,53.07
2023-04-27T13:25:30.404Z,53.22
2023-04-27T13:30:34.646Z,52.71
2023-04-27T13:35:38.004Z,51.50
2023-04-27T13:40:42.749Z,51.86
2023-04-27T13:45:46.381Z,52.93
2023-04-27T13:50:49.737Z,52.92
2023-04-27T13:55:55.118Z,52.55
2023-04-27T14:00:59.430Z,53.73
2023-04-27T14:06:03.294Z,54.51
2023-04-27T14:11:08.801Z,52.90
2023-04-27T14:16:14.611Z,55.09
2023-04-27T14:21:20.417Z,53.75
2023-04-27T14:26:25.114Z,56.68
2023-04-27T14:31:29.381Z,57.79
2023-04-27T14:36:33.451Z,57.87
2023-04-27T14:41:41.537Z,56.40
2023-04-27T14:46:44.886Z,57.94
2023-04-27T14:51:49.213Z,58.47
2023-04-27T14:56:58.587Z,60.47
2023-04-27T15:02:12.975Z,58.60
2023-04-27T15:12:41.982Z,59.64
2023-04-27T15:17:46.699Z,58.95
2023-04-27T15:22:52.072Z,57.18
2023-04-27T15:28:03.154Z,56.38
2023-04-27T15:33:09.589Z,55.69
2023-04-27T15:38:14.173Z,56.10
2023-04-27T15:43:19.115Z,54.32
2023-04-27T15:48:22.521Z,52.90
2023-04-27T15:53:28.496Z,56.55
2023-04-27T15:58:33.180Z,56.01
2023-04-27T16:03:39.117Z,54.77
2023-04-27T16:08:42.531Z,51.80
2023-04-27T16:13:47.160Z,51.75
2023-04-27T16:18:50.447Z,52.39
2023-04-27T16:23:58.524Z,53.26
2023-04-27T16:29:03.315Z,52.76
2023-04-27T16:34:06.761Z,51.73
2023-04-27T16:39:14.173Z,52.42
2023-04-27T16:44:19.986Z,51.81
2023-04-27T16:49:24.130Z,52.04
2023-04-27T16:54:44.029Z,52.36
2023-04-27T17:05:29.188Z,53.95
2023-04-27T17:10:43.381Z,54.50
2023-04-27T17:21:19.503Z,56.03
2023-04-27T17:26:25.637Z,56.21
2023-04-27T17:31:31.014Z,55.97
2023-04-27T17:36:36.924Z,57.94
2023-04-27T17:41:40.509Z,56.64
2023-04-27T17:46:48.238Z,57.92
2023-04-27T17:51:55.205Z,58.71
2023-04-27T17:56:58.876Z,58.65
2023-04-27T18:02:03.906Z,60.07
2023-04-27T18:07:07.288Z,62.00
2023-04-27T18:12:11.327Z,62.94
2023-04-27T18:17:16.728Z,66.11
2023-04-27T18:22:20.249Z,65.99
2023-04-27T18:27:23.719Z,65.74
2023-04-27T18:32:31.210Z,66.32
2023-04-27T18:37:34.889Z,67.31
2023-04-27T18:42:41.176Z,68.97
2023-04-27T18:47:46.032Z,68.28
2023-04-27T18:52:50.124Z,67.20
2023-04-27T18:57:53.635Z,67.49
2023-04-27T19:02:58.567Z,69.99
2023-04-27T19:08:02.898Z,69.25
2023-04-27T19:13:06.884Z,70.11
2023-04-27T19:18:12.022Z,71.73
2023-04-27T19:23:19.057Z,72.94
2023-04-27T19:28:23.383Z,75.51
2023-04-27T19:33:29.070Z,77.70
2023-04-27T19:44:27.147Z,76.32
2023-04-27T19:49:34.136Z,76.27
2023-04-27T19:54:38.599Z,77.80
2023-04-27T19:59:43.373Z,77.62
2023-04-27T20:04:48.887Z,78.62
2023-04-27T20:09:52.566Z,77.86
2023-04-27T20:14:56.467Z,80.06
2023-04-27T20:20:02.079Z,80.69
2023-04-27T20:25:09.518Z,82.68
2023-04-27T20:30:13.268Z,86.79
2023-04-27T20:35:18.573Z,86.78
2023-04-27T20:40:22.540Z,86.20
2023-04-27T20:45:28.544Z,87.77
2023-04-27T20:50:33.908Z,88.83
2023-04-27T20:55:37.300Z,91.87
2023-04-27T21:00:41.092Z,92.19
2023-04-27T21:05:47.225Z,92.03
2023-04-27T21:10:50.612Z,92.31
2023-04-27T21:15:53.961Z,92.26
2023-04-27T21:21:01.588Z,92.30
2023-04-27T21:26:08.249Z,93.69
2023-04-27T21:31:11.676Z,95.94
2023-04-27T21:36:16.946Z,99.57
